Bright Kalu

Scout - Remo Stars
22 Feb 2028
Dienstag
Verarbeitung

Persönlichkeit

Anpassungsfähigkeit (1) Ehrgeiz (20) Kontroverse (17) Loyalität (8) Druck (9) Professionalität (11) Fairness (19) Temperament (6)

Profil

Trainerstil Demokratisch
Lizenz Nationale B
Entschlossenheit 2
Menschenführung 6
Motivation 8
Disziplin 10
Arbeitszufriedenheit
100%
Ermüdung
0%
Rolle Scout
Gehalt 47.4K p/W
Vertrag 14.03.2030

Leistung

Verhalten Gut
Trainingseffektivität
18%
Spielerentwicklung
30%
Verletzungsprävention
20%
Taktische Umsetzung
20%

Letzte Ereignisse

Nahm an einer Scouting-Besprechung teil 7T her
Spiel beobachtet 7T her
Nahm an einer Scouting-Besprechung teil 14T her
Spiel beobachtet 14T her
Spiel beobachtet 14T her
Nahm an einer Scouting-Besprechung teil 21T her
Spiel beobachtet 21T her
Spiel beobachtet 21T her

Aktuell beobachtet

138
Spieler Verein Status Fähigkeit Vertrauen Beobachtet Zuletzt beobachtet Letzte Stimme
Fernando Bersano Madryn Aktiv 109 / 131 40% 3 21.01.2028 -
Gonzalo Asis Almagro Aktiv 110 / 106 40% 3 21.01.2028 -
Radinio Balker Huddersfield Town Verhandlung 133 / 115 40% 1 21.01.2028 -
Agustín Benítez Defensores Aktiv 103 / 128 40% 2 12.01.2028 -
Anton Stach Leeds United Aktiv 152 / 163 40% 4 12.01.2028 -
Jordan Williams Harrogate Town Aktiv 126 / 102 40% 1 12.01.2028 -
Ilja Zhbanov Akron Verhandlung 90 / 94 69% 1 01.01.2028 -
Anthony Okachi Reggiana Verhandlung 94 / 94 66% 1 01.01.2028 -
Vitaly Bondarev Akron Bericht bereit 94 / 104 66% 1 01.01.2028 -
Ivan Belikov Fakel Bericht bereit 99 / 105 67% 1 01.01.2028 -
Maximiliano Meléndez Chacarita Juniors Aktiv 123 / 116 40% 1 31.12.2027 -
Ramiro Hernandes Belgrano Aktiv 128 / 125 40% 1 31.12.2027 -
Marquinhos Spartak Moscow Aktiv 121 / 117 40% 1 31.12.2027 -
Dan Ballard Cardiff City Aktiv 142 / 144 40% 2 30.12.2027 -
Leandro Lozano Boca Juniors Aktiv 121 / 127 40% 1 30.12.2027 -
Josh Edwards Charlton Athletic Aktiv 126 / 142 40% 1 30.12.2027 -
Williams Manyama SuperSport United Aktiv 134 / 127 40% 6 28.12.2027 -
Andrés Álvarez Aguilas Doradas Aktiv 103 / 118 40% 4 28.12.2027 -
Aliu Salawudeen Ikorodu City Aktiv 96 / 104 40% 1 28.12.2027 -
Adam Randell Bristol City Aktiv 141 / 122 40% 2 27.12.2027 -
Gonzalo Abrego Godoy Cruz Aktiv 113 / 135 40% 4 26.12.2027 -
Gonzalo Gamarra Defensores Aktiv 110 / 93 40% 2 26.12.2027 -
Martín Garay Tigre Aktiv 133 / 114 40% 1 26.12.2027 -
Francisco Maidana Gimnasia y Esgrima Aktiv 104 / 118 40% 3 25.12.2027 -
Kevin O'Toole New York City Aktiv 122 / 110 40% 1 24.12.2027 -
Yvo Calleros Madryn Aktiv 103 / 98 40% 3 23.12.2027 -
Julián Cosi Madryn Aktiv 123 / 125 40% 2 23.12.2027 -
Marc Bola Watford Aktiv 111 / 135 40% 1 22.12.2027 -
Milan van Ewijk Mansfield Town Aktiv 143 / 142 40% 2 21.12.2027 -
Mateo Mendoza Godoy Cruz Aktiv 124 / 135 40% 5 21.12.2027 -
Braian Aranda Agropecuario Argentino Aktiv 124 / 121 40% 1 21.12.2027 -
Effimi Nsi Abia Warriors Aktiv 106 / 96 40% 2 18.12.2027 -
Tosin Adarabioyo Preston Aktiv 147 / 145 40% 2 18.12.2027 -
Erik de los Santos Racing Aktiv 124 / 113 40% 1 18.12.2027 -
Gonzalo Mottes Chacarita Juniors Aktiv 120 / 131 40% 6 17.12.2027 -
Nicolás Fernández Maipú Aktiv 122 / 117 40% 4 17.12.2027 -
Walter Juárez Güemes Aktiv 106 / 101 40% 3 15.12.2027 -
David Ayala Inter Miami CF Aktiv 126 / 127 40% 1 15.12.2027 -
Martín García Atlanta Aktiv 113 / 108 40% 3 13.12.2027 -
Mohammad Mukhtar Kano Pillars Aktiv 104 / 82 40% 3 13.12.2027 -
Luis Olivera Defensores Unidos Aktiv 112 / 123 40% 4 11.12.2027 -
Ezequiel Neira Carabobo Aktiv 126 / 115 40% 1 11.12.2027 -
Lewis Gibson Preston Aktiv 139 / 121 40% 1 09.12.2027 -
Godspower Akekoromowei El-Kanemi Warriors Aktiv 86 / 89 40% 1 09.12.2027 -
Maximiliano Ribero Central Norte Aktiv 124 / 111 40% 1 08.12.2027 -
Tristan Crama Lincoln City Aktiv 141 / 121 40% 2 07.12.2027 -
Abdulrafiu Taiwo Rivers United Aktiv 92 / 93 40% 3 06.12.2027 -
Nicolás Domínguez Huddersfield Town Aktiv 152 / 133 40% 1 06.12.2027 -
Mandla Erasmus SuperSport United Aktiv 135 / 110 40% 2 05.12.2027 -
Alpha Onyango Gor Mahia Aktiv 85 / 115 40% 1 05.12.2027 -
Fernando Martínez Central Córdoba SdE Aktiv 127 / 125 40% 3 03.12.2027 -
Dante Álvarez San Martín SJ Aktiv 97 / 124 40% 2 02.12.2027 -
Manuel Ugarte Portsmouth Aktiv 138 / 157 40% 2 02.12.2027 -
Enzo Silcan Almagro Aktiv 109 / 122 40% 2 30.11.2027 -
Franco Camargo Gimnasia y Esgrima Aktiv 116 / 101 40% 5 29.11.2027 -
Somiari Alalibo Abia Warriors Aktiv 90 / 97 40% 1 29.11.2027 -
Lorenzo Monti Temperley Aktiv 120 / 88 40% 2 27.11.2027 -
Matías Ruiz Díaz Estudiantes Aktiv 121 / 128 40% 2 27.11.2027 -
Alejandro Molina Tristán Suárez Aktiv 105 / 126 40% 1 26.11.2027 -
Ethan Ampadu Leeds United Aktiv 153 / 164 40% 1 26.11.2027 -
Fernando Miranda Colegiales Aktiv 119 / 107 40% 2 25.11.2027 -
Nicolás Paz San Martín SJ Aktiv 127 / 134 40% 3 23.11.2027 -
Maximiliano Luayza Koot Tristán Suárez Aktiv 104 / 111 40% 1 23.11.2027 -
Lautaro Núñez Alvarado Aktiv 96 / 108 40% 1 18.11.2027 -
Valentín Serrano Arsenal Aktiv 108 / 111 40% 2 16.11.2027 -
Lucas Monzón Alvarado Aktiv 100 / 120 40% 2 16.11.2027 -
Facundo Miño Deportivo Riestra Aktiv 135 / 141 40% 1 15.11.2027 -
Stephen Manyo Rivers United Aktiv 103 / 85 40% 2 14.11.2027 -
Isaí Valladares Zamora Aktiv 112 / 116 40% 1 14.11.2027 -
Juan Camilo Pérez Carabobo Aktiv 118 / 105 40% 1 13.11.2027 -
Franco Hanashiro Colegiales Aktiv 106 / 125 40% 1 13.11.2027 -
Maico Quiroz Güemes Aktiv 118 / 98 40% 2 12.11.2027 -
Tomás Ferreyra Defensores Unidos Aktiv 117 / 96 40% 1 12.11.2027 -
Facundo Ardiles Estudiantes Aktiv 111 / 119 40% 2 11.11.2027 -
Matías Benítez San Miguel Aktiv 103 / 107 40% 1 11.11.2027 -
Mauro Osores San Martín SJ Aktiv 125 / 113 40% 3 09.11.2027 -
Sheyko Studer Independiente Rivadavia Aktiv 115 / 108 40% 1 03.11.2027 -
Tomás Rojas Atlanta Aktiv 109 / 113 40% 1 03.11.2027 -
Innocent Arigu Katsina United Aktiv 95 / 79 40% 1 03.11.2027 -
Nazareno Fernández Colombo Los Andes Aktiv 95 / 87 40% 1 01.11.2027 -
José Mercado Union Magdalena Aktiv 120 / 117 40% 3 17.10.2027 -
Gino Barbieri Almagro Aktiv 121 / 97 40% 2 12.10.2027 -
Abel Bustos Racing Aktiv 114 / 123 40% 1 11.10.2027 -
Duke Osimaga Rivers United Aktiv 85 / 81 40% 1 08.10.2027 -
Gabriel Altamirano Almirante Brown Aktiv 123 / 90 40% 1 08.10.2027 -
Emanuel Iñíguez Morón Aktiv 114 / 116 40% 2 05.10.2027 -
Ian Pérez Defensores Aktiv 94 / 85 40% 1 05.10.2027 -
Matías Sánchez Racing Aktiv 120 / 101 40% 2 01.10.2027 -
Lautaro Lusnig Deportivo Tachira Aktiv 107 / 93 40% 1 30.09.2027 -
Matías Machado Racing Aktiv 124 / 129 40% 1 29.09.2027 -
Facundo Castet Colón Aktiv 120 / 110 40% 1 26.09.2027 -
Kabiru Tijjani Shooting Stars Aktiv 100 / 78 40% 1 21.09.2027 -
Steven Pabón Trujillanos Aktiv 113 / 111 40% 1 18.09.2027 -
Gabriel Otero Llaneros Aktiv 95 / 104 40% 1 11.09.2027 -
Cristhián Rivas Estudiantes de Merida Aktiv 118 / 113 40% 1 09.09.2027 -
Paulo Vitor Dinamo Batumi Aktiv 121 / 119 40% 1 09.09.2027 -
Brian Calderara Chacarita Juniors Aktiv 115 / 117 40% 1 07.09.2027 -
Deruo Wisdom Etoiles du Mande Aktiv 101 / 100 40% 1 02.09.2027 -
Giorgi Arabidze Torpedo Kutaisi Aktiv 112 / 114 40% 1 02.09.2027 -
Samuel Mathias Barau Aktiv 85 / 85 62% 1 16.08.2027 -
Hamza Choudhury Leicester City Aktiv 128 / 148 40% 1 09.08.2027 -
Kelechi Ogbodo Rangers International Aktiv 89 / 97 62% 1 05.07.2027 -
Lorent Tolaj Plymouth Argyle Aktiv 128 / 132 40% 1 07.06.2027 -
Josh Benson Rotherham United Aktiv 115 / 98 40% 1 02.06.2027 -
Idris El Mizouni Leyton Orient Aktiv 126 / 133 40% 1 02.06.2027 -
Simon Ramabu Polokwane City Aktiv 121 / 118 40% 3 31.05.2027 -
Giacomo Zecca Torres Aktiv 101 / 96 40% 1 31.05.2027 -
Thomas Waddingham Portsmouth Aktiv 108 / 120 40% 1 28.05.2027 -
Araphat Mohammed Berekum Chelsea Aktiv 102 / 118 40% 2 27.05.2027 -
Harvey White Stevenage Aktiv 110 / 132 40% 3 27.05.2027 -
Jovon Makama Norwich City Aktiv 124 / 141 40% 1 26.05.2027 -
Oswin Appollis Orlando Pirates Aktiv 110 / 114 40% 3 24.05.2027 -
Joe Snowdon Swindon Town Aktiv 99 / 106 40% 1 24.05.2027 -
John Yeboah Venezia Aktiv 115 / 139 40% 2 23.05.2027 -
Mattia Zennaro Union Brescia Aktiv 114 / 127 40% 1 19.05.2027 -
Michele Ambrosini AlbinoLeffe Aktiv 108 / 95 40% 1 16.05.2027 -
Derrick Fordjour Medeama Aktiv 101 / 99 40% 3 14.05.2027 -
Ronaldo Maarman University of Pretoria Aktiv 98 / 124 40% 1 14.05.2027 -
Siyanda Msani University of Pretoria Aktiv 92 / 102 40% 1 12.05.2027 -
Ben Lhassine Koné Frosinone Aktiv 110 / 106 40% 1 10.05.2027 -
Kwadwo Obeng Junior Heart of Lions Aktiv 95 / 72 40% 1 09.05.2027 -
Francis Sulemana Wa All Stars Aktiv 84 / 92 40% 1 08.05.2027 -
Junior Quitirna Wycombe Wanderers Aktiv 97 / 116 40% 2 06.05.2027 -
Sifiso Mokoena Black Aces Aktiv 86 / 83 40% 2 02.05.2027 -
Ewan Henderson Wycombe Wanderers Aktiv 110 / 132 40% 1 29.04.2027 -
Mohammed Djiku Wa All Stars Aktiv 95 / 90 40% 2 27.04.2027 -
Thalente Mbatha Orlando Pirates Aktiv 104 / 130 40% 1 27.04.2027 -
Trai Hume Sunderland Aktiv 139 / 121 40% 1 24.04.2027 -
Siyanda Ndlovu Bloemfontein Celtic Aktiv 130 / 121 40% 2 19.04.2027 -
Nicholas Ablido Great Olympics Aktiv 98 / 102 40% 1 14.04.2027 -
Bernat Guiu Virtus Entella Aktiv 131 / 136 40% 1 11.04.2027 -
Andrea Colpani Monza Aktiv 125 / 143 40% 1 10.04.2027 -
Eric Oteng Ashanti Gold Aktiv 85 / 84 40% 2 09.04.2027 -
Marcelo Allende Mamelodi Sundowns Aktiv 149 / 145 40% 1 28.03.2027 -
Thulani Dala Platinum Stars Aktiv 89 / 84 40% 1 27.03.2027 -
Idris Ajiya Nasarawa United Aktiv 71 / 75 58% 1 18.01.2027 -
Bassey Bassey Warri Wolves Aktiv 90 / 93 42% 1 / 1m 19.08.2026 -
Joel Odoh Rangers International Aktiv 89 / 96 58% 1 03.08.2026 -